createdAt,value
2022-10-29T00:00:57.599Z,9.80
2022-10-29T00:03:25.770Z,8.93
2022-10-29T00:06:04.617Z,8.45
2022-10-29T00:08:34.755Z,9.68
2022-10-29T00:11:21.302Z,8.73
2022-10-29T00:13:54.420Z,9.18
2022-10-29T00:16:25.053Z,9.60
2022-10-29T00:18:52.063Z,9.20
2022-10-29T00:21:22.071Z,8.57
2022-10-29T00:23:50.405Z,8.68
2022-10-29T00:26:20.184Z,8.52
2022-10-29T00:28:47.457Z,9.20
2022-10-29T00:31:19.068Z,9.32
2022-10-29T00:33:47.085Z,8.55
2022-10-29T00:36:17.204Z,9.23
2022-10-29T00:38:44.443Z,8.73
2022-10-29T00:41:15.904Z,9.02
2022-10-29T00:43:52.315Z,8.05
2022-10-29T00:46:32.846Z,8.68
2022-10-29T00:49:01.370Z,8.23
2022-10-29T00:51:31.417Z,8.30
2022-10-29T00:54:07.086Z,8.75
2022-10-29T00:56:40.096Z,8.45
2022-10-29T00:59:09.182Z,8.50
2022-10-29T01:01:37.668Z,8.30
2022-10-29T01:04:05.272Z,9.68
2022-10-29T01:06:33.605Z,8.73
2022-10-29T01:09:00.512Z,8.95
2022-10-29T01:11:50.123Z,8.60
2022-10-29T01:14:51.901Z,7.72
2022-10-29T01:17:21.496Z,8.20
2022-10-29T01:20:28.338Z,8.50
2022-10-29T01:23:25.661Z,8.27
2022-10-29T01:26:38.052Z,8.23
2022-10-29T01:29:24.651Z,8.82
2022-10-29T01:32:00.197Z,8.43
2022-10-29T01:34:50.917Z,8.77
2022-10-29T01:37:55.027Z,8.57
2022-10-29T01:40:32.839Z,9.45
2022-10-29T01:43:15.191Z,8.85
2022-10-29T01:46:08.550Z,8.05
2022-10-29T01:48:40.980Z,9.05
2022-10-29T01:51:16.916Z,8.27
2022-10-29T01:53:43.972Z,8.90
2022-10-29T01:56:10.916Z,8.05
2022-10-29T01:58:38.340Z,7.63
2022-10-29T02:01:34.860Z,8.85
2022-10-29T02:04:36.033Z,8.48
2022-10-29T02:07:20.515Z,8.65
2022-10-29T02:09:56.657Z,9.18
2022-10-29T02:12:38.829Z,8.23
2022-10-29T02:15:10.600Z,8.35
2022-10-29T02:17:38.084Z,8.57
2022-10-29T02:20:07.835Z,7.63
2022-10-29T02:22:35.016Z,7.60
2022-10-29T02:25:03.495Z,8.48
2022-10-29T02:27:30.653Z,8.07
2022-10-29T02:29:57.605Z,9.05
2022-10-29T02:32:24.574Z,8.52
2022-10-29T02:34:51.603Z,8.23
2022-10-29T02:37:18.653Z,8.75
2022-10-29T02:39:45.581Z,7.03
2022-10-29T02:42:12.533Z,7.95
2022-10-29T02:44:39.508Z,8.07
2022-10-29T02:47:06.431Z,7.80
2022-10-29T02:49:33.379Z,7.50
2022-10-29T02:52:00.329Z,8.23
2022-10-29T02:54:27.265Z,7.80
2022-10-29T02:56:54.160Z,7.88
2022-10-29T02:59:21.129Z,8.27
2022-10-29T03:01:48.201Z,7.50
2022-10-29T03:04:15.320Z,7.75
2022-10-29T03:06:42.278Z,7.53
2022-10-29T03:09:09.479Z,7.95
2022-10-29T03:11:36.373Z,7.57
2022-10-29T03:14:03.337Z,7.00
2022-10-29T03:16:30.291Z,8.85
2022-10-29T03:18:57.261Z,7.78
2022-10-29T03:21:24.186Z,7.95
2022-10-29T03:23:51.258Z,7.97
2022-10-29T03:26:18.145Z,8.02
2022-10-29T03:31:16.986Z,7.03
2022-10-29T03:33:43.965Z,7.95
2022-10-29T03:36:10.967Z,7.90
2022-10-29T03:38:38.028Z,7.85
2022-10-29T03:41:10.666Z,6.88
2022-10-29T03:43:39.376Z,7.53
2022-10-29T03:46:06.974Z,7.32
2022-10-29T03:48:34.313Z,6.78
2022-10-29T03:51:08.048Z,8.25
2022-10-29T03:53:37.130Z,7.07
2022-10-29T03:56:05.021Z,7.75
2022-10-29T03:58:32.061Z,8.18
2022-10-29T04:01:16.999Z,7.55
2022-10-29T04:03:44.117Z,7.07
2022-10-29T04:06:15.925Z,6.82
2022-10-29T04:08:43.368Z,7.10
2022-10-29T04:11:14.032Z,7.30
2022-10-29T04:13:41.011Z,6.72
2022-10-29T04:16:08.122Z,6.97
2022-10-29T04:18:35.311Z,6.55
2022-10-29T04:29:24.740Z,6.88
2022-10-29T04:31:51.900Z,7.47
2022-10-29T04:34:18.839Z,6.72
2022-10-29T04:36:45.836Z,6.55
2022-10-29T04:39:13.003Z,6.78
2022-10-29T04:41:39.951Z,6.60
2022-10-29T04:44:06.891Z,6.50
2022-10-29T04:46:33.839Z,7.20
2022-10-29T04:49:00.943Z,6.22
2022-10-29T04:51:27.975Z,7.10
2022-10-29T04:53:54.988Z,7.38
2022-10-29T04:56:21.942Z,7.00
2022-10-29T04:58:52.736Z,6.82
2022-10-29T05:01:20.081Z,6.47
2022-10-29T05:03:47.209Z,7.13
2022-10-29T05:06:14.207Z,7.10
2022-10-29T05:08:41.145Z,6.85
2022-10-29T05:11:08.289Z,7.38
2022-10-29T05:13:35.724Z,7.10
2022-10-29T05:16:02.778Z,6.80
2022-10-29T05:18:29.770Z,6.82
2022-10-29T05:20:58.694Z,6.60
2022-10-29T05:23:25.671Z,6.25
2022-10-29T05:25:55.278Z,6.13
2022-10-29T05:28:23.722Z,6.20
2022-10-29T05:30:52.856Z,5.95
2022-10-29T05:33:22.892Z,6.60
2022-10-29T05:35:51.441Z,7.70
2022-10-29T05:38:18.722Z,7.05
2022-10-29T05:40:46.001Z,6.35
2022-10-29T05:43:17.291Z,7.05
2022-10-29T05:45:44.683Z,7.10
2022-10-29T05:50:44.512Z,7.03
2022-10-29T05:53:14.319Z,6.85
2022-10-29T05:55:42.065Z,6.65
2022-10-29T05:58:14.071Z,6.43
2022-10-29T06:00:44.101Z,7.00
2022-10-29T06:03:21.188Z,6.95
2022-10-29T06:05:49.662Z,6.05
2022-10-29T06:08:17.566Z,7.53
2022-10-29T06:10:44.945Z,7.10
2022-10-29T06:13:18.758Z,6.35
2022-10-29T06:15:47.258Z,7.13
2022-10-29T06:18:14.305Z,6.78
2022-10-29T06:20:43.673Z,6.60
2022-10-29T06:23:11.499Z,6.97
2022-10-29T06:25:38.478Z,6.82
2022-10-29T06:28:12.236Z,6.35
2022-10-29T06:30:39.268Z,5.93
2022-10-29T06:33:06.301Z,7.25
2022-10-29T06:38:07.798Z,6.68
2022-10-29T06:40:40.094Z,7.20
2022-10-29T06:43:12.712Z,6.70
2022-10-29T06:45:39.904Z,7.25
2022-10-29T06:48:07.269Z,6.55
2022-10-29T06:50:34.300Z,6.18
2022-10-29T06:53:07.635Z,6.20
2022-10-29T06:55:35.125Z,5.97
2022-10-29T06:58:06.325Z,5.95
2022-10-29T07:00:34.675Z,12.45
2022-10-29T07:03:02.023Z,7.28
2022-10-29T07:05:28.999Z,14.50
2022-10-29T07:07:58.017Z,10.85
2022-10-29T07:10:28.526Z,8.45
2022-10-29T07:12:55.547Z,6.45
2022-10-29T07:15:25.766Z,5.65
2022-10-29T07:18:07.452Z,6.57
2022-10-29T07:20:40.737Z,18.95
2022-10-29T07:23:08.335Z,10.25
2022-10-29T07:25:36.750Z,8.95
2022-10-29T07:28:07.361Z,7.13
2022-10-29T07:30:34.637Z,6.88
2022-10-29T07:33:01.832Z,7.22
2022-10-29T07:35:28.918Z,6.65
2022-10-29T07:38:07.297Z,6.55
2022-10-29T07:40:48.327Z,7.18
2022-10-29T07:43:16.245Z,6.55
2022-10-29T07:45:45.646Z,6.63
2022-10-29T07:48:12.846Z,5.97
2022-10-29T07:50:39.938Z,6.30
2022-10-29T07:53:07.858Z,6.45
2022-10-29T07:55:35.250Z,6.13
2022-10-29T07:58:06.621Z,6.88
2022-10-29T08:00:36.579Z,6.38
2022-10-29T08:03:03.868Z,6.18
2022-10-29T08:05:31.785Z,6.22
2022-10-29T08:08:00.176Z,6.75
2022-10-29T08:10:28.152Z,5.93
2022-10-29T08:12:59.115Z,6.55
2022-10-29T08:15:28.381Z,7.20
2022-10-29T08:17:55.714Z,6.70
2022-10-29T08:20:25.641Z,6.05
2022-10-29T08:22:52.548Z,6.40
2022-10-29T08:25:19.711Z,6.88
2022-10-29T08:27:57.436Z,6.38
2022-10-29T08:30:24.349Z,6.75
2022-10-29T08:32:51.248Z,6.80
2022-10-29T08:35:18.234Z,6.20
2022-10-29T08:37:45.760Z,6.60
2022-10-29T08:41:23.273Z,6.32
2022-10-29T08:44:14.545Z,6.60
2022-10-29T08:46:49.367Z,6.40
2022-10-29T08:49:34.042Z,6.45
2022-10-29T08:52:27.812Z,6.70
2022-10-29T08:55:16.583Z,6.22
2022-10-29T08:57:51.092Z,7.22
2022-10-29T09:00:22.595Z,7.20
2022-10-29T09:03:12.775Z,7.28
2022-10-29T09:06:10.739Z,6.68
2022-10-29T09:09:00.583Z,7.03
2022-10-29T09:11:51.529Z,6.22
2022-10-29T09:14:48.030Z,7.60
2022-10-29T09:17:43.263Z,7.18
2022-10-29T09:20:58.446Z,7.00
2022-10-29T09:23:57.157Z,7.75
2022-10-29T09:26:57.036Z,7.03
2022-10-29T09:30:00.724Z,8.05
2022-10-29T09:32:41.502Z,7.20
2022-10-29T09:35:19.368Z,7.63
2022-10-29T09:37:52.310Z,7.40
2022-10-29T09:40:34.410Z,8.07
2022-10-29T09:43:25.110Z,8.00
2022-10-29T09:46:45.172Z,8.32
2022-10-29T09:49:21.335Z,8.65
2022-10-29T09:52:03.080Z,8.27
2022-10-29T09:54:31.392Z,8.23
2022-10-29T09:57:00.644Z,9.32
2022-10-29T09:59:44.497Z,8.90
2022-10-29T10:02:54.923Z,8.73
2022-10-29T10:05:32.839Z,8.90
2022-10-29T10:08:14.552Z,7.63
2022-10-29T10:10:57.714Z,8.98
2022-10-29T10:13:35.853Z,9.77
2022-10-29T10:16:08.598Z,9.50
2022-10-29T10:21:32.317Z,10.18
2022-10-29T10:24:00.533Z,9.50
2022-10-29T10:26:43.497Z,10.75
2022-10-29T10:29:14.862Z,9.88
2022-10-29T10:32:11.457Z,11.38
2022-10-29T10:34:39.652Z,11.35
2022-10-29T10:37:19.906Z,13.18
2022-10-29T10:40:05.867Z,12.05
2022-10-29T10:42:42.852Z,11.65
2022-10-29T10:45:24.110Z,11.23
2022-10-29T10:47:59.117Z,12.05
2022-10-29T10:50:33.564Z,11.68
2022-10-29T10:53:17.018Z,11.23
2022-10-29T10:55:53.916Z,10.55
2022-10-29T10:58:45.052Z,10.02
2022-10-29T11:01:23.715Z,9.57
2022-10-29T11:04:19.025Z,9.13
2022-10-29T11:06:50.450Z,9.38
2022-10-29T11:09:36.280Z,10.48
2022-10-29T11:12:32.264Z,9.80
2022-10-29T11:15:13.245Z,9.15
2022-10-29T11:17:48.883Z,9.13
2022-10-29T11:20:25.097Z,8.70
2022-10-29T11:23:24.896Z,9.45
2022-10-29T11:26:02.983Z,8.00
2022-10-29T11:28:43.495Z,7.53
2022-10-29T11:31:53.521Z,8.13
2022-10-29T11:34:45.913Z,8.43
2022-10-29T11:37:44.800Z,7.85
2022-10-29T11:40:45.943Z,8.25
2022-10-29T11:43:15.167Z,8.45
2022-10-29T11:46:32.145Z,7.35
2022-10-29T11:49:10.612Z,7.95
2022-10-29T11:51:56.313Z,7.40
2022-10-29T11:54:42.079Z,7.47
2022-10-29T11:57:19.375Z,7.60
2022-10-29T12:00:01.261Z,6.88
2022-10-29T12:02:56.073Z,6.93
2022-10-29T12:05:35.099Z,7.32
2022-10-29T12:08:45.259Z,7.07
2022-10-29T12:11:42.080Z,7.95
2022-10-29T12:14:33.328Z,6.63
2022-10-29T12:17:09.562Z,6.50
2022-10-29T12:20:02.386Z,7.50
2022-10-29T12:22:50.247Z,6.95
2022-10-29T12:25:40.522Z,7.25
2022-10-29T12:28:26.934Z,7.65
2022-10-29T12:31:09.665Z,7.10
2022-10-29T12:34:08.016Z,6.60
2022-10-29T12:37:29.993Z,6.32
2022-10-29T12:40:05.265Z,9.10
2022-10-29T12:42:33.525Z,8.60
2022-10-29T12:45:34.788Z,7.75
2022-10-29T12:48:36.831Z,7.43
2022-10-29T12:51:28.730Z,7.40
2022-10-29T12:54:31.886Z,6.53
2022-10-29T12:57:14.722Z,7.25
2022-10-29T12:59:43.835Z,6.00
2022-10-29T13:02:45.120Z,6.15
2022-10-29T13:05:14.022Z,6.72
2022-10-29T13:07:46.979Z,6.47
2022-10-29T13:10:26.362Z,6.18
2022-10-29T13:13:18.476Z,5.70
2022-10-29T13:16:20.833Z,6.03
2022-10-29T13:19:42.220Z,5.62
2022-10-29T13:22:59.202Z,4.79
2022-10-29T13:25:37.918Z,5.65
2022-10-29T13:28:24.324Z,4.46
2022-10-29T13:31:06.300Z,5.97
2022-10-29T13:33:49.850Z,4.85
2022-10-29T13:36:16.746Z,5.32
2022-10-29T13:39:04.945Z,5.07
2022-10-29T13:41:51.339Z,5.30
2022-10-29T13:44:24.206Z,5.50
2022-10-29T13:47:04.177Z,5.95
2022-10-29T13:49:44.840Z,4.95
2022-10-29T13:52:16.744Z,5.72
2022-10-29T13:55:01.210Z,5.20
2022-10-29T13:57:42.689Z,5.70
2022-10-29T14:00:12.315Z,6.03
2022-10-29T14:03:14.971Z,5.15
2022-10-29T14:06:12.120Z,6.20
2022-10-29T14:08:50.565Z,5.63
2022-10-29T14:11:43.676Z,6.03
2022-10-29T14:14:34.781Z,6.03
2022-10-29T14:17:21.947Z,6.18
2022-10-29T14:19:52.045Z,5.75
2022-10-29T14:22:18.960Z,6.03
2022-10-29T14:24:45.877Z,5.82
2022-10-29T14:27:15.239Z,5.18
2022-10-29T14:29:42.482Z,5.65
2022-10-29T14:32:18.842Z,4.40
2022-10-29T14:34:50.196Z,5.20
2022-10-29T14:37:37.620Z,5.53
2022-10-29T14:40:21.656Z,5.15
2022-10-29T14:42:54.018Z,5.13
2022-10-29T14:45:29.968Z,5.00
2022-10-29T14:48:08.971Z,6.15
2022-10-29T14:50:36.416Z,5.07
2022-10-29T14:53:07.821Z,7.18
2022-10-29T14:55:42.076Z,7.07
2022-10-29T14:58:11.879Z,7.55
2022-10-29T15:00:49.050Z,6.53
2022-10-29T15:03:22.923Z,5.68
2022-10-29T15:05:50.514Z,5.93
2022-10-29T15:08:25.013Z,6.25
2022-10-29T15:10:55.094Z,5.78
2022-10-29T15:13:30.475Z,6.25
2022-10-29T15:16:18.676Z,5.72
2022-10-29T15:18:53.900Z,5.60
2022-10-29T15:21:33.141Z,5.00
2022-10-29T15:24:07.656Z,6.32
2022-10-29T15:26:43.633Z,5.15
2022-10-29T15:29:12.011Z,5.88
2022-10-29T15:31:49.519Z,5.40
2022-10-29T15:34:36.334Z,8.95
2022-10-29T15:37:23.338Z,7.25
2022-10-29T15:39:56.676Z,6.78
2022-10-29T15:42:28.343Z,6.10
2022-10-29T15:45:07.545Z,6.38
2022-10-29T15:47:50.995Z,6.80
2022-10-29T15:50:22.751Z,6.97
2022-10-29T15:53:05.956Z,6.13
2022-10-29T15:55:36.270Z,6.65
2022-10-29T15:58:15.978Z,6.38
2022-10-29T16:00:44.090Z,6.70
2022-10-29T16:03:16.632Z,6.57
2022-10-29T16:05:47.274Z,7.32
2022-10-29T16:08:38.675Z,8.90
2022-10-29T16:11:08.969Z,7.15
2022-10-29T16:13:36.279Z,7.15
2022-10-29T16:16:03.792Z,6.32
2022-10-29T16:18:30.733Z,6.47
2022-10-29T16:21:00.826Z,7.03
2022-10-29T16:23:27.813Z,7.22
2022-10-29T16:25:54.713Z,6.63
2022-10-29T16:28:21.769Z,7.57
2022-10-29T16:30:55.017Z,8.15
2022-10-29T16:33:21.935Z,7.50
2022-10-29T16:35:48.896Z,8.35
2022-10-29T16:38:18.554Z,8.23
2022-10-29T16:40:46.082Z,9.18
2022-10-29T16:43:13.046Z,8.30
2022-10-29T16:45:40.120Z,10.25
2022-10-29T16:48:07.252Z,9.02
2022-10-29T16:50:34.851Z,9.48
2022-10-29T16:53:08.879Z,10.10
2022-10-29T16:55:40.715Z,8.77
2022-10-29T16:58:12.936Z,10.27
2022-10-29T17:00:40.246Z,11.05
2022-10-29T17:03:11.787Z,9.35
2022-10-29T17:05:42.781Z,9.85
2022-10-29T17:08:10.172Z,9.93
2022-10-29T17:10:37.554Z,8.60
2022-10-29T17:13:07.107Z,8.50
2022-10-29T17:15:34.040Z,8.50
2022-10-29T17:18:01.395Z,7.95
2022-10-29T17:20:28.570Z,8.30
2022-10-29T17:22:55.557Z,9.68
2022-10-29T17:25:22.448Z,8.52
2022-10-29T17:27:49.495Z,9.15
2022-10-29T17:30:16.520Z,7.72
2022-10-29T17:32:43.414Z,8.38
2022-10-29T17:35:10.403Z,7.68
2022-10-29T17:37:37.366Z,7.45
2022-10-29T17:40:08.146Z,8.32
2022-10-29T17:42:35.628Z,7.75
2022-10-29T17:45:02.582Z,7.82
2022-10-29T17:47:30.172Z,6.97
2022-10-29T17:49:57.210Z,7.50
2022-10-29T17:52:24.180Z,7.68
2022-10-29T17:54:51.117Z,7.15
2022-10-29T17:57:18.006Z,6.95
2022-10-29T17:59:44.936Z,7.20
2022-10-29T18:02:11.954Z,7.30
2022-10-29T18:04:39.076Z,7.65
2022-10-29T18:07:06.033Z,7.47
2022-10-29T18:09:32.950Z,8.05
2022-10-29T18:11:59.868Z,7.65
2022-10-29T18:14:26.776Z,6.82
2022-10-29T18:16:53.685Z,7.30
2022-10-29T18:19:20.907Z,7.38
2022-10-29T18:21:47.882Z,7.72
2022-10-29T18:24:14.825Z,8.20
2022-10-29T18:26:41.813Z,7.18
2022-10-29T18:29:12.020Z,6.18
2022-10-29T18:31:42.240Z,7.45
2022-10-29T18:34:09.767Z,7.63
2022-10-29T18:36:37.083Z,6.60
2022-10-29T18:39:05.483Z,6.65
2022-10-29T18:41:32.721Z,7.90
2022-10-29T18:44:00.162Z,8.27
2022-10-29T18:46:27.179Z,8.10
2022-10-29T18:48:54.284Z,7.50
2022-10-29T18:51:24.684Z,7.72
2022-10-29T18:53:53.768Z,7.00
2022-10-29T18:56:22.835Z,7.30
2022-10-29T18:58:50.117Z,7.55
2022-10-29T19:01:23.818Z,7.68
2022-10-29T19:03:56.900Z,7.68
2022-10-29T19:06:27.130Z,6.95
2022-10-29T19:08:54.574Z,6.90
2022-10-29T19:11:27.992Z,9.15
2022-10-29T19:14:01.511Z,7.60
2022-10-29T19:16:30.712Z,7.68
2022-10-29T19:19:07.420Z,8.13
2022-10-29T19:21:36.418Z,6.93
2022-10-29T19:24:04.313Z,7.70
2022-10-29T19:26:33.980Z,7.72
2022-10-29T19:29:04.169Z,7.45
2022-10-29T19:31:32.755Z,8.23
2022-10-29T19:34:04.233Z,8.15
2022-10-29T19:36:31.251Z,7.65
2022-10-29T19:38:58.266Z,7.95
2022-10-29T19:41:25.382Z,8.32
2022-10-29T19:43:52.758Z,8.63
2022-10-29T19:46:24.770Z,7.78
2022-10-29T19:48:55.143Z,9.00
2022-10-29T19:51:22.770Z,8.65
2022-10-29T19:53:53.209Z,8.30
2022-10-29T19:56:21.522Z,7.75
2022-10-29T19:58:48.614Z,8.70
2022-10-29T20:01:18.113Z,8.20
2022-10-29T20:03:46.384Z,8.10
2022-10-29T20:06:14.881Z,8.60
2022-10-29T20:08:41.863Z,8.05
2022-10-29T20:11:09.070Z,8.52
2022-10-29T20:13:36.702Z,8.45
2022-10-29T20:16:18.252Z,8.98
2022-10-29T20:18:46.165Z,8.57
2022-10-29T20:21:13.874Z,11.10
2022-10-29T20:23:41.265Z,24.63
2022-10-29T20:26:08.936Z,15.65
2022-10-29T20:28:36.000Z,11.20
2022-10-29T20:31:17.548Z,10.95
2022-10-29T20:33:56.469Z,10.55
2022-10-29T20:36:25.207Z,9.13
2022-10-29T20:38:53.396Z,9.13
2022-10-29T20:41:22.018Z,9.15
2022-10-29T20:43:54.538Z,9.15
2022-10-29T20:46:22.987Z,9.30
2022-10-29T20:48:50.061Z,9.23
2022-10-29T20:51:17.312Z,8.93
2022-10-29T20:53:45.054Z,8.73
2022-10-29T20:56:15.980Z,8.95
2022-10-29T20:58:43.998Z,8.85
2022-10-29T21:01:15.014Z,9.38
2022-10-29T21:03:43.531Z,8.85
2022-10-29T21:06:17.185Z,9.23
2022-10-29T21:08:48.738Z,9.65
2022-10-29T21:11:18.604Z,10.18
2022-10-29T21:13:46.109Z,8.90
2022-10-29T21:16:21.783Z,9.38
2022-10-29T21:18:54.756Z,9.38
2022-10-29T21:21:21.845Z,9.57
2022-10-29T21:23:49.035Z,9.68
2022-10-29T21:26:22.848Z,9.20
2022-10-29T21:28:51.749Z,9.65
2022-10-29T21:31:19.490Z,9.90
2022-10-29T21:33:49.321Z,10.88
2022-10-29T21:36:16.337Z,9.15
2022-10-29T21:38:43.330Z,10.65
2022-10-29T21:41:11.102Z,10.27
2022-10-29T21:43:39.351Z,10.23
2022-10-29T21:46:06.437Z,11.48
2022-10-29T21:48:33.457Z,11.25
2022-10-29T21:51:03.616Z,10.73
2022-10-29T21:53:30.923Z,10.88
2022-10-29T21:55:59.656Z,10.07
2022-10-29T21:58:27.222Z,11.07
2022-10-29T22:01:13.365Z,10.73
2022-10-29T22:03:42.994Z,12.85
2022-10-29T22:06:16.096Z,12.55
2022-10-29T22:08:44.457Z,12.00
2022-10-29T22:11:12.738Z,13.68
2022-10-29T22:13:40.184Z,16.15
2022-10-29T22:16:08.426Z,13.23
2022-10-29T22:18:36.878Z,13.32
2022-10-29T22:21:15.241Z,12.75
2022-10-29T22:23:54.376Z,13.88
2022-10-29T22:26:27.275Z,12.93
2022-10-29T22:28:54.772Z,12.68
2022-10-29T22:31:23.426Z,13.10
2022-10-29T22:33:51.047Z,13.52
2022-10-29T22:36:26.323Z,13.18
2022-10-29T22:38:58.400Z,13.05
2022-10-29T22:41:26.474Z,14.30
2022-10-29T22:43:54.289Z,13.30
2022-10-29T22:46:22.587Z,13.70
2022-10-29T22:48:49.574Z,13.23
2022-10-29T22:51:23.456Z,14.52
2022-10-29T22:53:52.434Z,14.55
2022-10-29T22:56:24.012Z,13.52
2022-10-29T22:58:51.775Z,13.23
2022-10-29T23:01:26.052Z,14.30
2022-10-29T23:03:53.135Z,14.23
2022-10-29T23:06:22.735Z,14.27
2022-10-29T23:08:53.328Z,14.88
2022-10-29T23:11:27.040Z,16.98
2022-10-29T23:14:00.341Z,15.18
2022-10-29T23:16:30.256Z,15.50
2022-10-29T23:19:00.938Z,17.38
2022-10-29T23:21:28.788Z,17.15
2022-10-29T23:23:56.640Z,16.45
2022-10-29T23:26:25.427Z,18.58
2022-10-29T23:28:53.057Z,17.05
2022-10-29T23:31:23.687Z,17.65
2022-10-29T23:33:53.898Z,17.63
2022-10-29T23:36:23.237Z,18.42
2022-10-29T23:39:01.570Z,16.75
2022-10-29T23:41:30.206Z,18.08
2022-10-29T23:43:58.159Z,17.00
2022-10-29T23:46:25.153Z,17.33
2022-10-29T23:48:52.174Z,18.02
2022-10-29T23:51:19.531Z,17.25
2022-10-29T23:53:47.588Z,17.00
2022-10-29T23:56:16.028Z,16.67
2022-10-29T23:58:42.933Z,16.45
